Time;durP1;ratioP1;P1;durP2;ratioP2;P2;SDS_P1;SDS_P2;PMS_P1;PMS_P2;Temp;Humidity;BMP_temperature;BMP_pressure;BME280_temperature;BME280_humidity;BME280_pressure;Samples;Min_cycle;Max_cycle;Signal;HPM_P1;HPM_P2
2022/09/28 00:01:18;;;;;;;3.07;0.80;;;9.70;99.90;;;12.71;56.66;95895.38;5026260;28;20052;-46
2022/09/28 00:03:48;;;;;;;1.65;0.90;;;9.70;99.90;;;12.72;56.69;95892.50;5027444;28;20052;-46
2022/09/28 00:06:22;;;;;;;1.10;1.00;;;9.70;99.90;;;12.74;56.95;95894.97;5026970;28;20063;-48
2022/09/28 00:08:50;;;;;;;1.75;0.70;;;9.80;99.90;;;12.75;56.73;95892.06;5025187;28;20060;-47
2022/09/28 00:11:20;;;;;;;2.23;0.87;;;9.80;99.90;;;12.80;56.79;95875.41;5026656;28;20378;-48
2022/09/28 00:13:51;;;;;;;1.37;1.00;;;9.80;99.90;;;12.82;56.94;95875.19;5026974;28;20054;-49
2022/09/28 00:16:25;;;;;;;1.60;0.97;;;9.80;99.90;;;12.85;57.04;95872.88;5027727;28;20340;-46
2022/09/28 00:18:54;;;;;;;1.98;1.02;;;9.80;99.90;;;12.86;56.94;95863.03;5011027;28;20239;-49
2022/09/28 00:21:25;;;;;;;1.43;0.97;;;9.90;99.90;;;12.85;56.92;95862.19;5026556;28;20049;-48
2022/09/28 00:24:19;;;;;;;2.73;1.30;;;9.80;99.90;;;12.87;57.27;95857.47;5026097;28;20879;-51
2022/09/28 00:26:53;;;;;;;1.83;1.13;;;9.80;99.90;;;12.87;57.21;95854.81;5027926;28;20262;-49
2022/09/28 00:29:27;;;;;;;1.67;0.80;;;9.80;99.90;;;12.90;57.21;95846.34;5042008;28;20068;-49
2022/09/28 00:32:02;;;;;;;2.00;1.00;;;9.80;99.90;;;12.90;57.22;95845.53;5025571;28;20061;-47
2022/09/28 00:34:34;;;;;;;1.33;1.00;;;9.80;99.90;;;12.90;57.18;95848.19;5027314;28;20111;-49
2022/09/28 00:37:05;;;;;;;2.77;0.90;;;9.80;99.90;;;12.90;57.26;95841.00;5010559;28;20057;-50
2022/09/28 00:39:34;;;;;;;1.20;1.03;;;9.90;99.90;;;12.89;57.56;95835.84;5026696;28;20049;-49
2022/09/28 00:42:09;;;;;;;1.13;0.87;;;9.90;99.90;;;12.90;57.53;95829.50;5026048;28;20049;-49
2022/09/28 00:44:52;;;;;;;0.93;0.83;;;9.80;99.90;;;12.92;57.37;95830.09;5027117;28;20057;-48
2022/09/28 00:47:48;;;;;;;1.40;1.10;;;9.90;99.90;;;12.89;57.51;95822.50;5026195;28;20057;-52
2022/09/28 00:50:31;;;;;;;1.30;0.90;;;9.80;99.90;;;12.94;57.44;95822.69;5024335;28;20061;-47
2022/09/28 00:53:16;;;;;;;3.07;0.90;;;9.90;99.90;;;12.96;57.64;95815.25;5025394;28;20267;-48
2022/09/28 00:55:57;;;;;;;1.80;1.10;;;9.90;99.90;;;12.97;57.49;95808.91;5008989;28;20233;-47
2022/09/28 00:58:30;;;;;;;1.97;0.80;;;9.90;99.90;;;12.99;57.45;95793.47;5026606;28;20049;-50
2022/09/28 01:00:59;;;;;;;1.30;1.17;;;9.90;99.90;;;12.99;57.74;95790.78;5026747;28;20051;-49
2022/09/28 01:03:28;;;;;;;1.17;0.60;;;9.90;99.90;;;12.98;57.96;95783.81;5025076;28;20059;-52
2022/09/28 01:06:01;;;;;;;1.03;0.93;;;9.80;99.90;;;12.98;58.05;95783.81;5025086;28;20069;-49
2022/09/28 01:08:32;;;;;;;3.90;1.00;;;9.90;99.90;;;12.97;58.00;95780.31;5009104;28;20061;-50
2022/09/28 01:11:01;;;;;;;1.17;0.80;;;9.90;99.90;;;12.98;57.95;95771.25;5008929;28;20057;-46
2022/09/28 01:13:30;;;;;;;2.27;0.90;;;9.90;99.90;;;13.00;58.28;95769.19;5008866;28;20057;-51
2022/09/28 01:16:17;;;;;;;1.23;0.90;;;9.90;99.90;;;13.03;57.89;95770.59;5024747;28;20371;-49
2022/09/28 01:19:28;;;;;;;2.00;0.77;;;9.90;99.90;;;13.06;57.93;95764.00;5024505;28;20083;-51
2022/09/28 01:22:24;;;;;;;3.70;1.07;;;10.00;99.90;;;13.07;57.99;95746.94;5024662;28;20065;-51
2022/09/28 01:25:36;;;;;;;2.50;1.53;;;10.10;99.90;;;13.09;57.92;95739.53;5026227;28;20049;-48
2022/09/28 01:28:13;;;;;;;1.20;0.80;;;10.10;99.90;;;13.09;58.01;95731.50;5027287;28;20059;-49
2022/09/28 01:31:02;;;;;;;1.57;1.00;;;10.00;99.90;;;13.10;58.07;95723.25;5024844;28;20041;-47
2022/09/28 01:33:49;;;;;;;1.87;1.13;;;10.00;99.90;;;13.10;58.15;95709.88;5024007;28;20046;-50
2022/09/28 01:36:33;;;;;;;2.50;1.17;;;10.10;99.90;;;13.12;58.31;95718.50;5024877;28;20064;-50
2022/09/28 01:39:08;;;;;;;1.90;1.30;;;10.10;99.90;;;13.09;58.35;95713.63;5024873;28;20057;-49
2022/09/28 01:41:39;;;;;;;0.90;0.60;;;10.10;99.90;;;13.10;58.55;95703.72;5024803;28;20059;-48
2022/09/28 01:44:13;;;;;;;3.40;0.93;;;10.10;99.90;;;13.11;58.41;95695.50;5025446;28;20041;-49
2022/09/28 01:46:47;;;;;;;1.63;1.07;;;10.20;99.90;;;13.14;58.45;95695.06;5040333;28;20409;-50
2022/09/28 01:49:46;;;;;;;1.75;1.00;;;10.20;99.90;;;13.16;58.00;95684.13;5024889;28;20047;-49
2022/09/28 01:52:39;;;;;;;0.97;0.63;;;10.20;99.90;;;13.16;58.41;95681.47;5007660;28;20049;-48
2022/09/28 01:55:23;;;;;;;3.37;1.17;;;10.20;99.90;;;13.13;58.62;95676.59;5023731;28;20050;-48
2022/09/28 01:58:06;;;;;;;1.80;1.00;;;10.20;99.90;;;13.13;58.62;95672.03;5024804;28;20075;-47
2022/09/28 02:00:38;;;;;;;0.90;0.80;;;10.20;99.90;;;13.11;58.65;95665.31;5024951;28;20063;-46
2022/09/28 02:03:20;;;;;;;1.70;1.17;;;10.20;99.90;;;13.11;58.88;95674.13;5008614;28;20347;-47
2022/09/28 02:06:01;;;;;;;2.57;0.83;;;10.20;99.90;;;13.15;58.89;95661.13;5024100;28;20061;-50
2022/09/28 02:08:39;;;;;;;2.70;1.20;;;10.20;99.90;;;13.14;58.87;95656.81;5008566;28;20369;-47
2022/09/28 02:11:13;;;;;;;0.73;0.73;;;10.20;99.90;;;13.17;59.02;95653.72;5023832;28;20300;-50
2022/09/28 02:14:07;;;;;;;1.93;0.90;;;10.20;99.90;;;13.18;58.58;95650.81;5024327;28;20067;-49
2022/09/28 02:16:45;;;;;;;1.42;1.00;;;10.20;99.90;;;13.23;58.91;95643.97;5027115;28;20061;-49
2022/09/28 02:19:40;;;;;;;1.83;0.97;;;10.20;99.90;;;13.25;58.69;95645.38;5028675;28;20059;-47
2022/09/28 02:22:27;;;;;;;1.20;1.00;;;10.30;99.90;;;13.28;58.68;95647.59;5026425;28;20059;-47
2022/09/28 02:25:01;;;;;;;4.17;1.77;;;10.30;99.90;;;13.32;58.81;95645.34;5028965;28;20041;-48
2022/09/28 02:27:34;;;;;;;2.23;0.93;;;10.30;99.90;;;13.35;58.96;95648.34;5028925;28;20380;-48
2022/09/28 02:30:05;;;;;;;1.83;1.00;;;10.40;99.90;;;13.35;58.86;95637.66;5027724;28;20064;-47
2022/09/28 02:32:39;;;;;;;2.47;1.20;;;10.40;99.90;;;13.38;58.94;95639.06;5027689;28;20367;-49
2022/09/28 02:35:12;;;;;;;2.30;1.43;;;10.40;99.90;;;13.42;58.76;95640.25;5028208;28;20042;-47
2022/09/28 02:37:40;;;;;;;1.80;1.10;;;10.40;99.90;;;13.41;58.99;95632.44;5043963;28;20063;-49
2022/09/28 02:40:24;;;;;;;4.23;1.17;;;10.40;99.90;;;13.40;58.97;95623.63;5026729;28;20067;-47
2022/09/28 02:43:18;;;;;;;4.30;1.10;;;10.40;99.90;;;13.37;59.01;95632.09;5028284;28;20049;-49
2022/09/28 02:46:00;;;;;;;2.08;1.00;;;10.30;99.90;;;13.42;59.14;95624.19;5011412;28;20059;-50
2022/09/28 02:49:09;;;;;;;2.80;1.10;;;10.40;99.90;;;13.40;59.09;95620.94;5028915;28;20057;-48
2022/09/28 02:52:27;;;;;;;1.40;1.00;;;10.40;99.90;;;13.40;58.89;95623.63;5043644;28;20049;-50
2022/09/28 02:55:16;;;;;;;2.90;1.23;;;10.40;99.90;;;13.44;59.22;95615.97;5028794;28;20393;-47
2022/09/28 02:58:33;;;;;;;2.00;0.93;;;10.40;99.90;;;13.43;59.22;95615.13;5029271;28;20221;-49
2022/09/28 03:01:38;;;;;;;1.90;1.10;;;10.50;99.90;;;13.47;58.95;95602.94;5026857;28;20067;-48
2022/09/28 03:04:41;;;;;;;2.20;1.13;;;10.50;99.90;;;13.48;59.33;95601.91;5025759;28;20371;-51
2022/09/28 03:07:42;;;;;;;1.30;1.20;;;10.50;99.90;;;13.49;58.98;95594.69;5013260;28;20057;-47
2022/09/28 03:10:23;;;;;;;1.25;0.85;;;10.50;99.90;;;13.55;58.86;95601.78;5027450;28;20068;-51
2022/09/28 03:12:53;;;;;;;2.03;1.00;;;10.50;99.90;;;13.52;59.14;95599.59;5026586;28;20236;-47
2022/09/28 03:15:28;;;;;;;2.63;1.27;;;10.50;99.90;;;13.52;59.27;95611.09;5010705;28;20136;-47
2022/09/28 03:17:57;;;;;;;2.37;1.10;;;10.50;99.90;;;13.47;59.46;95647.56;5027907;28;20065;-51
2022/09/28 03:20:27;;;;;;;2.33;0.90;;;10.40;99.90;;;13.26;59.93;95644.34;5010060;28;20068;-46
2022/09/28 03:22:55;;;;;;;1.80;1.10;;;10.20;99.90;;;13.03;60.43;95646.91;5025867;28;20050;-49
2022/09/28 03:25:43;;;;;;;1.50;0.80;;;10.00;99.90;;;12.44;61.73;95660.72;5026724;28;20051;-51
2022/09/28 03:28:11;;;;;;;0.80;0.80;;;9.70;99.90;;;12.11;62.72;95655.72;5026985;28;20049;-47
2022/09/28 03:30:41;;;;;;;0.77;0.77;;;9.40;99.90;;;12.11;62.82;95658.38;5026557;28;20255;-48
2022/09/28 03:33:09;;;;;;;3.83;1.10;;;9.30;99.90;;;12.09;62.75;95655.94;5026573;28;20067;-51
2022/09/28 03:35:38;;;;;;;5.40;1.00;;;9.30;99.90;;;12.07;62.55;95657.19;5026575;28;20053;-51
2022/09/28 03:38:06;;;;;;;4.57;1.70;;;9.30;99.90;;;12.23;62.01;95653.13;5028946;28;20080;-49
2022/09/28 03:40:37;;;;;;;2.53;0.97;;;9.30;99.90;;;12.29;61.81;95658.44;5026586;28;20378;-53
2022/09/28 03:43:05;;;;;;;2.47;1.13;;;9.40;99.90;;;12.32;62.10;95657.97;5042841;28;20049;-48
2022/09/28 03:45:33;;;;;;;1.93;0.83;;;9.40;99.90;;;12.35;62.21;95656.72;5025562;28;20049;-51
2022/09/28 03:48:00;;;;;;;1.27;1.00;;;9.40;99.90;;;12.16;62.49;95666.56;5028896;28;20051;-49
2022/09/28 03:50:28;;;;;;;1.70;1.00;;;9.30;99.90;;;12.04;63.00;95660.28;5041389;28;20054;-48
2022/09/28 03:53:02;;;;;;;1.63;1.00;;;9.30;99.90;;;12.01;63.31;95657.03;5025169;28;20079;-50
2022/09/28 03:55:30;;;;;;;;;;;9.40;99.90;;;12.28;62.73;95648.78;5025347;28;20049;-49
2022/09/28 03:57:58;;;;;;;1.20;1.10;;;9.30;99.90;;;12.37;62.10;95652.00;5028217;28;20219;-47
2022/09/28 04:00:26;;;;;;;3.77;1.20;;;9.40;99.90;;;12.46;61.91;95655.97;5026618;28;20071;-49
2022/09/28 04:02:55;;;;;;;3.90;1.73;;;9.50;99.90;;;12.47;61.68;95648.81;5026243;28;20049;-50
2022/09/28 04:05:23;;;;;;;4.03;1.40;;;9.50;99.90;;;12.50;61.52;95651.81;5025356;28;20045;-48
2022/09/28 04:07:54;;;;;;;2.87;1.10;;;9.50;99.90;;;12.37;62.16;95658.13;5043155;28;20071;-51
2022/09/28 04:10:24;;;;;;;1.50;0.97;;;9.50;99.90;;;12.33;61.98;95648.94;5009263;28;20049;-47
2022/09/28 04:12:54;;;;;;;2.43;1.00;;;9.40;99.90;;;12.08;62.90;95646.31;5042791;28;20053;-48
2022/09/28 04:15:24;;;;;;;1.70;1.00;;;9.30;99.90;;;12.29;62.53;95650.41;5024256;28;20052;-47
2022/09/28 04:17:52;;;;;;;1.43;0.80;;;9.30;99.90;;;12.39;61.88;95655.25;5026973;28;20049;-48
2022/09/28 04:20:47;;;;;;;2.00;0.70;;;9.40;99.90;;;12.23;62.56;95650.47;5024589;28;20263;-49
2022/09/28 04:23:15;;;;;;;2.57;0.90;;;9.30;99.90;;;12.05;62.54;95644.06;5027190;28;20055;-47
2022/09/28 04:25:46;;;;;;;1.23;0.60;;;9.30;99.90;;;12.20;62.02;95636.53;5027086;28;20051;-50
2022/09/28 04:31:03;;;;;;;0.80;0.70;;;9.20;99.90;;;12.27;62.00;95651.66;5011791;28;20055;-47
2022/09/28 04:33:31;;;;;;;0.70;0.70;;;9.30;99.90;;;12.23;61.72;95650.47;5024362;28;20053;-47
2022/09/28 04:35:59;;;;;;;2.63;1.03;;;9.30;99.90;;;12.23;61.63;95647.81;5024760;28;20042;-47
2022/09/28 04:38:27;;;;;;;1.70;0.80;;;9.30;99.90;;;12.26;61.94;95650.03;5024302;28;20057;-47
2022/09/28 04:41:16;;;;;;;0.87;0.70;;;9.20;99.90;;;12.24;61.75;95644.91;5025333;28;20232;-51
2022/09/28 04:43:46;;;;;;;1.53;0.70;;;9.20;99.90;;;12.16;61.85;95653.22;5009336;28;20258;-48
2022/09/28 04:46:15;;;;;;;3.07;1.20;;;9.20;99.90;;;12.23;62.04;95661.13;5024437;28;20057;-49
2022/09/28 04:48:52;;;;;;;2.13;1.13;;;9.20;99.90;;;12.29;62.07;95654.91;5024332;28;20061;-52
2022/09/28 04:51:55;;;;;;;1.40;0.80;;;9.20;99.90;;;12.27;61.64;95654.31;5026448;28;20057;-51
2022/09/28 04:54:23;;;;;;;1.70;0.93;;;9.30;99.90;;;12.19;61.84;95650.09;5024726;28;20053;-47
2022/09/28 04:56:51;;;;;;;3.47;0.90;;;9.20;99.90;;;12.28;61.61;95650.63;5024364;28;20064;-48
2022/09/28 04:59:19;;;;;;;1.03;0.50;;;9.20;99.90;;;12.17;61.97;95649.50;5025830;28;20549;-49
2022/09/28 05:01:48;;;;;;;3.40;1.10;;;9.20;99.90;;;12.15;61.75;95657.72;5024413;28;20063;-49
2022/09/28 05:04:34;;;;;;;6.47;3.60;;;9.20;99.90;;;11.98;62.31;95662.81;5027642;28;20051;-48
2022/09/28 05:07:21;;;;;;;4.23;2.77;;;9.10;99.90;;;12.10;62.59;95660.25;5028920;28;20052;-48
2022/09/28 05:09:49;;;;;;;4.40;1.97;;;9.10;99.90;;;12.15;62.13;95663.03;5007630;28;20083;-47
2022/09/28 05:12:17;;;;;;;3.03;1.20;;;9.10;99.90;;;11.97;62.61;95663.81;5024476;28;20065;-50
2022/09/28 05:14:45;;;;;;;5.03;3.60;;;9.10;99.90;;;12.18;62.07;95673.28;5024746;28;20247;-49
2022/09/28 05:17:14;;;;;;;5.17;2.00;;;9.20;99.90;;;12.28;61.94;95672.78;5024073;28;20041;-52
2022/09/28 05:20:01;;;;;;;4.63;2.60;;;9.20;99.90;;;12.20;62.16;95673.88;5023992;28;20053;-53
2022/09/28 05:22:29;;;;;;;6.20;2.87;;;9.20;99.90;;;12.16;61.90;95672.69;5023963;28;20045;-51
2022/09/28 05:24:59;;;;;;;3.57;1.60;;;9.20;99.90;;;12.17;62.13;95665.50;5026030;28;20064;-51
2022/09/28 05:27:30;;;;;;;3.42;2.35;;;9.10;99.90;;;12.05;62.38;95669.94;5024952;28;20068;-52
2022/09/28 05:30:06;;;;;;;3.57;1.80;;;9.10;99.90;;;12.10;62.35;95664.75;5023878;28;20057;-53
2022/09/28 05:32:52;;;;;;;2.17;1.30;;;9.10;99.90;;;11.99;63.06;95658.28;5027256;28;20056;-54
2022/09/28 05:35:28;;;;;;;3.10;1.90;;;9.10;99.90;;;12.07;62.39;95647.31;5023870;28;20061;-53
2022/09/28 05:38:03;;;;;;;7.10;2.50;;;9.10;99.90;;;12.15;62.64;95648.91;5026507;28;20044;-52
2022/09/28 05:40:31;;;;;;;1.57;1.10;;;9.10;99.90;;;12.11;62.60;95666.38;5024892;28;20049;-51
2022/09/28 05:43:01;;;;;;;5.70;2.13;;;9.10;99.90;;;12.08;62.64;95680.13;5024054;28;20501;-53
2022/09/28 05:45:29;;;;;;;2.53;1.83;;;9.10;99.90;;;12.23;62.63;95679.81;4992497;28;20677;-47
2022/09/28 05:47:57;;;;;;;2.10;1.80;;;9.20;99.90;;;12.30;62.43;95684.06;5024607;28;20118;-48
2022/09/28 05:50:25;;;;;;;1.70;1.60;;;9.30;99.90;;;12.23;62.49;95677.16;5025217;28;20061;-51
2022/09/28 05:53:04;;;;;;;2.80;1.73;;;9.20;99.90;;;12.23;62.65;95679.81;5012100;28;20056;-50
2022/09/28 05:55:33;;;;;;;5.30;1.63;;;9.20;99.90;;;12.10;63.37;95684.25;5027941;28;20060;-49
2022/09/28 05:58:04;;;;;;;3.37;1.73;;;9.20;99.90;;;12.04;63.33;95686.94;5027976;28;20053;-49
2022/09/28 06:00:34;;;;;;;3.43;2.73;;;9.10;99.90;;;12.09;63.42;95687.94;5028910;28;20288;-50
2022/09/28 06:03:11;;;;;;;3.33;2.53;;;9.10;99.90;;;12.16;63.25;95690.56;5025943;28;20065;-50
2022/09/28 06:05:40;;;;;;;4.20;3.00;;;9.20;99.90;;;12.20;62.96;95691.75;5027757;28;20041;-48
2022/09/28 06:08:12;;;;;;;4.90;2.93;;;9.20;99.90;;;12.11;63.59;95693.84;5027229;28;20263;-50
2022/09/28 06:10:45;;;;;;;3.93;2.17;;;9.20;99.90;;;12.19;63.20;95684.75;5011067;28;20163;-48
2022/09/28 06:13:13;;;;;;;3.97;2.23;;;9.20;99.90;;;12.28;62.95;95685.31;5027530;28;20049;-48
2022/09/28 06:15:42;;;;;;;4.00;2.10;;;9.20;99.90;;;12.36;62.96;95687.69;5026446;28;20053;-50
2022/09/28 06:18:13;;;;;;;5.53;2.40;;;9.30;99.90;;;12.45;62.80;95694.38;5012012;28;20243;-51
2022/09/28 06:21:01;;;;;;;4.10;1.90;;;9.30;99.90;;;12.40;62.77;95702.22;5029033;28;20258;-48
2022/09/28 06:23:35;;;;;;;4.53;2.60;;;9.40;99.90;;;12.40;62.82;95711.03;5027877;28;20053;-50
2022/09/28 06:26:05;;;;;;;6.00;3.17;;;9.40;99.90;;;12.49;62.75;95708.13;5027543;28;20064;-49
2022/09/28 06:28:33;;;;;;;2.83;2.00;;;9.40;99.90;;;12.51;63.00;95706.03;5011605;28;20049;-52
2022/09/28 06:31:00;;;;;;;4.93;2.40;;;9.40;99.90;;;12.50;62.84;95715.88;5027383;28;20057;-48
2022/09/28 06:33:30;;;;;;;5.30;2.50;;;9.40;99.90;;;12.56;62.97;95724.84;5026456;28;20053;-51
2022/09/28 06:35:58;;;;;;;5.43;2.70;;;9.40;99.90;;;12.60;62.99;95718.88;5027326;28;20241;-51
2022/09/28 06:38:26;;;;;;;4.67;3.17;;;9.50;99.90;;;12.34;63.70;95722.59;5028237;28;20041;-49
2022/09/28 06:40:56;;;;;;;4.80;2.17;;;9.40;99.90;;;12.46;63.62;95730.69;5026654;28;20053;-51
2022/09/28 06:43:25;;;;;;;5.77;2.97;;;9.40;99.90;;;12.50;63.18;95734.56;5028060;28;20045;-49
2022/09/28 06:46:30;;;;;;;10.48;4.32;;;9.40;99.90;;;12.49;63.39;95732.94;5032566;28;20160;-51
2022/09/28 06:49:18;;;;;;;6.43;3.23;;;9.50;99.90;;;12.49;63.47;95735.59;5028621;28;20072;-49
2022/09/28 06:52:06;;;;;;;6.50;2.97;;;9.40;99.90;;;12.56;63.31;95741.72;5026225;28;20362;-52
2022/09/28 06:54:56;;;;;;;5.60;2.70;;;9.50;99.90;;;12.57;63.31;95739.84;5027819;28;20053;-48
2022/09/28 06:57:34;;;;;;;6.17;3.27;;;9.50;99.90;;;12.57;63.26;95738.00;5029192;28;20154;-52
2022/09/28 07:00:03;;;;;;;4.50;2.97;;;9.50;99.90;;;12.57;63.72;95747.84;5026571;28;20083;-51
2022/09/28 07:02:31;;;;;;;4.03;2.57;;;9.60;99.90;;;12.57;63.32;95740.66;5010486;28;20049;-51
2022/09/28 07:05:18;;;;;;;4.10;3.10;;;9.60;99.90;;;12.68;63.29;95746.31;5025478;28;20055;-52
2022/09/28 07:08:13;;;;;;;5.13;3.00;;;9.60;99.90;;;12.63;63.25;95746.16;5027088;28;20061;-48
2022/09/28 07:10:54;;;;;;;6.53;2.80;;;9.60;99.90;;;12.81;62.84;95762.19;5026381;28;20068;-53
2022/09/28 07:13:29;;;;;;;6.10;2.60;;;9.70;99.90;;;12.59;63.30;95759.94;5027300;28;20053;-53
2022/09/28 07:16:18;;;;;;;4.50;2.83;;;9.70;99.90;;;12.47;63.54;95775.03;5025811;28;20389;-53
2022/09/28 07:18:52;;;;;;;5.27;2.47;;;9.50;99.90;;;12.64;62.93;95774.47;5027617;28;20373;-48
2022/09/28 07:21:20;;;;;;;7.10;2.90;;;9.60;99.90;;;12.70;62.81;95779.78;5025575;28;20057;-51
2022/09/28 07:23:59;;;;;;;5.97;3.03;;;9.70;99.90;;;12.47;63.58;95780.38;5026517;28;20049;-49
2022/09/28 07:26:53;;;;;;;3.85;2.78;;;9.60;99.90;;;12.48;63.54;95782.00;5027483;28;20053;-50
2022/09/28 07:29:41;;;;;;;5.53;2.17;;;9.60;99.90;;;12.17;64.09;95782.88;5036136;28;20061;-51
2022/09/28 07:32:22;;;;;;;5.60;2.43;;;9.50;99.90;;;11.98;64.59;95784.63;5025445;28;20061;-50
2022/09/28 07:35:10;;;;;;;3.23;1.90;;;9.40;99.90;;;12.32;63.66;95788.72;5026511;28;20068;-49
2022/09/28 07:37:46;;;;;;;5.10;3.10;;;9.50;99.90;;;12.51;62.91;95792.25;5025860;28;20046;-53
2022/09/28 07:43:06;;;;;;;3.77;2.67;;;9.60;99.90;;;12.14;64.12;95815.34;5012092;28;20067;-51
2022/09/28 07:45:37;;;;;;;4.90;3.03;;;9.50;99.90;;;12.44;63.78;95814.69;5026741;28;20059;-51
2022/09/28 07:48:05;;;;;;;4.60;2.27;;;9.50;99.90;;;12.57;63.14;95806.59;5027686;28;20275;-52
2022/09/28 07:50:56;;;;;;;4.03;2.47;;;9.60;99.90;;;12.61;63.19;95823.78;5030458;28;20057;-50
2022/09/28 07:53:34;;;;;;;4.00;2.10;;;9.60;99.90;;;12.40;63.44;95825.78;5026276;28;20057;-49
2022/09/28 07:56:37;;;;;;;6.18;3.95;;;9.60;99.90;;;12.48;63.05;95821.22;5014313;28;20057;-51
2022/09/28 07:59:25;;;;;;;3.73;2.50;;;9.60;99.90;;;12.40;63.27;95831.13;5028188;28;20072;-51
2022/09/28 08:02:13;;;;;;;3.83;2.33;;;9.60;99.90;;;12.41;63.50;95838.13;5035819;28;20368;-48
2022/09/28 08:04:41;;;;;;;5.73;2.80;;;9.60;99.90;;;12.55;63.23;95840.69;5025052;28;20049;-52
2022/09/28 08:07:10;;;;;;;6.53;2.60;;;9.70;99.90;;;12.15;64.06;95848.97;5024723;28;20051;-52
2022/09/28 08:09:40;;;;;;;5.90;2.37;;;9.60;99.90;;;12.33;63.84;95843.72;5024748;28;20057;-53
2022/09/28 08:12:26;;;;;;;3.00;2.27;;;9.60;99.90;;;12.53;63.52;95848.09;5028659;28;20049;-52
2022/09/28 08:15:26;;;;;;;4.53;2.90;;;9.70;99.90;;;12.48;62.99;95850.59;5014695;28;20238;-49
2022/09/28 08:18:09;;;;;;;6.77;2.53;;;9.70;99.90;;;12.66;62.80;95852.50;5025688;28;20746;-49
2022/09/28 08:23:24;;;;;;;4.70;2.70;;;9.70;99.90;;;12.68;62.42;95853.94;5025497;28;20053;-51
2022/09/28 08:25:53;;;;;;;4.20;2.30;;;9.80;99.90;;;12.49;62.52;95863.72;5024596;28;20065;-49
2022/09/28 08:28:23;;;;;;;3.60;2.70;;;9.80;99.90;;;12.54;62.72;95850.56;5025355;28;20054;-52
2022/09/28 08:30:59;;;;;;;6.47;2.50;;;9.80;99.90;;;12.61;62.56;95853.16;5025225;28;20057;-50
2022/09/28 08:34:02;;;;;;;4.13;2.40;;;9.80;99.90;;;12.79;62.11;95860.41;5045251;28;20057;-50
2022/09/28 08:36:59;;;;;;;4.43;2.67;;;9.80;99.90;;;12.46;62.58;95855.31;5027194;28;20347;-51
2022/09/28 08:39:45;;;;;;;4.73;2.63;;;9.70;99.90;;;12.55;62.35;95852.16;5027564;28;20056;-50
2022/09/28 08:42:41;;;;;;;3.70;2.63;;;9.80;99.90;;;12.74;61.84;95852.25;5025991;28;20343;-49
2022/09/28 08:45:30;;;;;;;3.87;3.13;;;9.80;99.90;;;12.69;61.86;95855.53;5011155;28;20449;-50
2022/09/28 08:48:43;;;;;;;7.10;2.80;;;9.80;99.90;;;12.81;62.01;95861.00;5035155;28;20065;-48
2022/09/28 08:52:00;;;;;;;6.43;2.77;;;9.90;99.90;;;12.78;61.65;95870.25;5025449;28;20065;-50
2022/09/28 08:55:18;;;;;;;5.30;3.00;;;10.00;99.90;;;12.95;61.43;95875.03;5024900;28;20049;-52
2022/09/28 08:58:12;;;;;;;4.83;2.80;;;10.10;99.90;;;12.96;61.02;95877.50;5026259;28;20144;-49
2022/09/28 09:00:47;;;;;;;5.57;3.53;;;10.10;99.90;;;12.80;61.00;95873.53;5023944;28;20495;-50
2022/09/28 09:03:41;;;;;;;4.90;2.53;;;10.10;99.90;;;12.79;61.38;95871.06;5024715;28;20053;-50
2022/09/28 09:07:08;;;;;;;5.27;3.30;;;10.10;99.90;;;13.06;60.93;95879.66;5024627;28;20243;-51
2022/09/28 09:10:07;;;;;;;4.43;2.60;;;10.20;99.90;;;12.64;61.29;95881.25;5022881;28;20231;-51
2022/09/28 09:12:45;;;;;;;3.63;2.27;;;10.20;99.90;;;12.73;61.21;95887.97;5037125;28;20049;-49
2022/09/28 09:15:16;;;;;;;5.67;2.57;;;10.10;99.90;;;12.84;61.14;95889.13;5033769;28;20368;-50
2022/09/28 09:18:16;;;;;;;4.60;2.47;;;10.10;99.90;;;12.90;60.36;95894.41;5025841;28;20045;-49
2022/09/28 09:22:00;;;;;;;6.87;2.90;;;10.30;99.90;;;13.08;60.35;95896.28;5024565;28;20064;-50
2022/09/28 09:25:13;;;;;;;3.90;3.13;;;10.40;99.90;;;13.14;60.24;95891.94;5024411;28;20049;-49
2022/09/28 09:28:12;;;;;;;4.50;2.93;;;10.40;99.90;;;13.41;60.13;95902.41;5029797;28;20063;-47
2022/09/28 09:31:25;;;;;;;7.00;2.70;;;10.50;99.90;;;13.36;60.12;95905.75;5031075;28;20057;-47
2022/09/28 09:34:14;;;;;;;3.83;2.78;;;10.60;99.90;;;13.52;59.80;95910.50;5029849;28;20068;-49
2022/09/28 09:37:00;;;;;;;6.40;3.53;;;10.60;99.90;;;13.22;59.32;95917.56;5030343;28;20059;-48
2022/09/28 09:40:47;;;;;;;5.10;3.30;;;10.60;99.90;;;13.01;59.41;95911.59;5029715;28;20235;-49
2022/09/28 09:44:25;;;;;;;5.47;2.80;;;10.40;99.90;;;13.37;58.99;95916.19;4984284;28;20062;-49
2022/09/28 09:47:44;;;;;;;5.00;2.70;;;10.40;99.90;;;13.39;59.29;95924.81;4979144;28;20296;-50
2022/09/28 09:50:32;;;;;;;5.87;3.60;;;10.60;99.90;;;13.60;59.26;95925.44;5027860;28;20349;-50
2022/09/28 09:53:42;;;;;;;7.13;3.50;;;10.70;99.90;;;13.75;58.84;95927.75;5027176;28;20053;-48
2022/09/28 09:56:20;;;;;;;6.70;3.20;;;10.90;99.90;;;13.27;59.02;95926.53;5027559;28;20065;-50
2022/09/28 09:59:17;;;;;;;5.32;2.90;;;10.70;99.90;;;13.31;59.22;95922.41;5028896;28;20336;-50
2022/09/28 10:02:33;;;;;;;8.43;3.75;;;10.70;99.90;;;13.22;59.39;95923.69;5014263;28;20051;-50
2022/09/28 10:05:10;;;;;;;5.03;3.17;;;10.70;99.90;;;13.50;59.05;95933.16;5026963;28;20053;-49
2022/09/28 10:07:59;;;;;;;5.35;3.45;;;10.80;99.90;;;13.11;58.97;95922.59;5028394;28;20247;-50
2022/09/28 10:11:06;;;;;;;4.23;3.33;;;10.70;99.90;;;13.46;58.58;95931.97;5028873;28;20076;-48
2022/09/28 10:13:39;;;;;;;6.10;3.20;;;10.90;99.90;;;13.58;58.00;95928.31;5040914;28;20416;-47
2022/09/28 10:16:31;;;;;;;3.53;2.50;;;11.00;99.90;;;13.67;56.97;95931.53;5037132;28;20045;-49
2022/09/28 10:19:01;;;;;;;6.33;3.13;;;11.00;99.90;;;13.61;56.27;95926.25;5035774;28;20144;-50
2022/09/28 10:21:52;;;;;;;7.43;2.60;;;11.00;99.90;;;13.73;55.86;95927.97;5033094;28;20055;-50
2022/09/28 10:24:39;;;;;;;3.25;2.70;;;11.00;99.90;;;13.76;56.41;95927.53;5027332;28;20075;-52
2022/09/28 10:27:17;;;;;;;4.85;3.08;;;11.10;99.90;;;13.66;56.15;95931.75;5013004;28;20049;-49
2022/09/28 10:29:58;;;;;;;3.10;2.38;;;11.00;99.90;;;13.59;56.30;95935.31;5012468;28;20067;-49
2022/09/28 10:32:43;;;;;;;3.27;2.53;;;11.00;99.90;;;13.70;55.85;95930.25;5028304;28;20057;-49
2022/09/28 10:35:17;;;;;;;;;;;11.10;99.90;;;14.03;56.02;95931.72;5028446;28;20061;-48
2022/09/28 10:37:58;;;;;;;6.57;2.42;;;11.20;99.90;;;13.90;55.01;95927.34;5026314;28;19925;-49
2022/09/28 10:40:59;;;;;;;5.65;2.70;;;11.20;99.90;;;14.00;54.77;95933.00;5033638;28;20056;-53
2022/09/28 10:44:07;;;;;;;16.20;4.38;;;11.30;99.90;;;14.26;54.17;95939.06;5024770;28;20228;-51
2022/09/28 10:47:02;;;;;;;5.05;2.50;;;11.40;99.90;;;13.97;54.17;95936.13;5044310;28;20352;-52
2022/09/28 10:49:45;;;;;;;6.30;2.90;;;11.40;99.90;;;14.00;53.48;95933.00;5027527;28;20057;-51
2022/09/28 10:52:28;;;;;;;4.32;2.47;;;11.40;99.90;;;14.10;53.69;95932.47;5026459;28;20060;-51
2022/09/28 10:54:56;;;;;;;5.72;2.33;;;11.40;99.90;;;14.09;53.63;95936.19;5025913;28;20061;-49
2022/09/28 10:57:30;;;;;;;4.18;2.22;;;11.50;99.90;;;14.02;53.31;95941.63;5044275;28;20053;-49
2022/09/28 11:00:06;;;;;;;3.08;1.92;;;11.40;99.90;;;14.02;53.17;95940.81;5027596;28;20067;-49
2022/09/28 11:02:40;;;;;;;3.25;2.20;;;11.40;99.90;;;13.82;52.74;95933.81;5043313;28;20068;-48
2022/09/28 11:05:27;;;;;;;4.35;2.05;;;11.30;96.70;;;13.56;53.02;95933.06;5025012;28;20076;-49
2022/09/28 11:08:04;;;;;;;4.07;2.13;;;11.20;97.30;;;13.95;53.28;95931.00;5026392;28;20057;-48
2022/09/28 11:10:38;;;;;;;5.72;2.20;;;11.40;99.90;;;13.91;53.56;95935.16;5026755;28;20049;-51
2022/09/28 11:13:16;;;;;;;2.60;2.10;;;11.50;99.90;;;14.26;53.15;95923.81;5027378;28;20051;-47
2022/09/28 11:15:53;;;;;;;8.45;3.88;;;11.60;99.90;;;14.21;52.71;95917.50;5028295;28;20056;-50
2022/09/28 11:18:33;;;;;;;4.20;2.08;;;11.70;99.40;;;14.32;51.48;95922.91;5011686;28;20336;-53
2022/09/28 11:21:20;;;;;;;5.35;1.90;;;11.70;92.50;;;14.35;51.63;95927.81;5026795;28;20061;-49
2022/09/28 11:24:04;;;;;;;;;;;11.90;94.90;;;14.64;51.08;95922.72;5028325;28;20576;-50
2022/09/28 11:26:42;;;;;;;2.95;1.58;;;12.00;94.10;;;14.91;51.51;95923.13;5027572;28;19917;-51
2022/09/28 11:29:31;;;;;;;6.22;2.00;;;12.20;96.60;;;14.72;51.38;95921.56;5011163;28;20271;-50